Time;durP1;ratioP1;P1;durP2;ratioP2;P2;SDS_P1;SDS_P2;PMS_P1;PMS_P2;Temp;Humidity;BMP_temperature;BMP_pressure;BME280_temperature;BME280_humidity;BME280_pressure;Samples;Min_cycle;Max_cycle;Signal;HPM_P1;HPM_P2
2023/08/16 00:02:23;;;;;;;3.58;1.90;;;16.30;99.90;;;;;;5062105;28;20063;-35
2023/08/16 00:04:49;;;;;;;3.90;2.55;;;16.20;99.90;;;;;;5061015;28;20921;-35
2023/08/16 00:07:15;;;;;;;2.67;1.67;;;16.20;99.90;;;;;;5059568;28;20045;-35
2023/08/16 00:09:41;;;;;;;3.70;2.08;;;16.20;99.90;;;;;;5061921;28;20732;-35
2023/08/16 00:12:07;;;;;;;2.58;1.50;;;16.10;99.90;;;;;;5057923;28;20140;-34
2023/08/16 00:14:33;;;;;;;2.08;1.50;;;16.10;99.90;;;;;;5062753;28;20048;-34
2023/08/16 00:16:58;;;;;;;2.53;1.58;;;16.10;99.90;;;;;;5058263;28;20125;-34
2023/08/16 00:19:25;;;;;;;4.22;1.85;;;16.00;99.90;;;;;;5057838;28;20086;-34
2023/08/16 00:21:51;;;;;;;3.17;2.00;;;16.00;99.90;;;;;;5045442;28;20048;-35
2023/08/16 00:24:17;;;;;;;2.67;1.98;;;16.00;99.90;;;;;;5052015;28;20109;-34
2023/08/16 00:26:43;;;;;;;3.33;2.25;;;16.00;99.90;;;;;;5061353;28;20542;-35
2023/08/16 00:29:08;;;;;;;3.00;2.00;;;16.00;99.90;;;;;;5055853;28;20049;-34
2023/08/16 00:31:34;;;;;;;3.45;2.30;;;15.90;99.90;;;;;;5054132;28;20124;-34
2023/08/16 00:34:00;;;;;;;4.40;2.08;;;15.90;99.90;;;;;;5063946;28;20070;-34
2023/08/16 00:36:25;;;;;;;3.95;1.90;;;15.90;99.90;;;;;;5051656;28;21012;-35
2023/08/16 00:38:51;;;;;;;3.17;2.05;;;15.80;99.90;;;;;;5063852;28;20102;-35
2023/08/16 00:41:17;;;;;;;2.65;1.63;;;15.80;99.90;;;;;;5062336;28;20057;-35
2023/08/16 00:43:43;;;;;;;3.55;1.80;;;15.80;99.90;;;;;;5056053;28;20076;-35
2023/08/16 00:46:11;;;;;;;4.20;1.92;;;15.80;99.90;;;;;;5054643;28;20768;-35
2023/08/16 00:48:38;;;;;;;2.80;1.60;;;15.80;99.90;;;;;;5060295;28;20048;-35
2023/08/16 00:51:05;;;;;;;2.38;1.27;;;15.80;99.90;;;;;;5053789;28;20122;-35
2023/08/16 00:53:32;;;;;;;2.28;1.50;;;15.70;99.90;;;;;;5061950;28;20119;-36
2023/08/16 00:55:58;;;;;;;2.20;1.42;;;15.70;99.90;;;;;;5062733;28;20131;-36
2023/08/16 00:58:26;;;;;;;1.95;1.40;;;15.70;99.90;;;;;;5058479;28;20057;-35
2023/08/16 01:00:51;;;;;;;2.80;1.60;;;15.70;99.90;;;;;;5061870;28;20470;-35
2023/08/16 01:03:17;;;;;;;2.10;1.50;;;15.60;99.90;;;;;;5065126;28;20047;-35
2023/08/16 01:05:43;;;;;;;3.08;1.27;;;15.60;99.90;;;;;;5056585;28;20163;-36
2023/08/16 01:08:09;;;;;;;2.03;1.23;;;15.60;99.90;;;;;;5052716;28;20061;-35
2023/08/16 01:10:46;;;;;;;3.88;1.33;;;15.50;99.90;;;;;;5063145;28;20056;-35
2023/08/16 01:13:24;;;;;;;3.15;1.23;;;15.50;99.90;;;;;;5059936;28;20052;-35
2023/08/16 01:15:50;;;;;;;3.42;1.30;;;15.50;99.90;;;;;;5060235;28;20083;-35
2023/08/16 01:18:17;;;;;;;2.78;1.30;;;15.50;99.90;;;;;;5052790;28;20091;-35
2023/08/16 01:20:47;;;;;;;5.10;1.63;;;15.50;99.90;;;;;;5045668;28;20101;-35
2023/08/16 01:23:30;;;;;;;3.35;1.52;;;15.50;99.90;;;;;;5062788;28;20139;-35
2023/08/16 01:26:12;;;;;;;3.97;1.90;;;15.50;99.90;;;;;;5053829;28;20072;-35
2023/08/16 01:28:39;;;;;;;3.78;2.30;;;15.50;99.90;;;;;;5045322;28;20557;-36
2023/08/16 01:31:05;;;;;;;6.53;2.58;;;15.50;99.90;;;;;;5062715;28;20068;-36
2023/08/16 01:33:31;;;;;;;4.55;2.08;;;15.50;99.90;;;;;;5063778;28;20133;-34
2023/08/16 01:35:57;;;;;;;4.53;1.98;;;15.50;99.90;;;;;;5055178;28;20498;-35
2023/08/16 01:38:24;;;;;;;5.45;2.33;;;15.50;99.90;;;;;;5061724;28;20056;-36
2023/08/16 01:41:10;;;;;;;4.22;2.20;;;15.60;99.90;;;;;;5061385;28;20143;-35
2023/08/16 01:43:36;;;;;;;4.28;2.08;;;15.60;99.90;;;;;;5062202;28;20550;-35
2023/08/16 01:46:04;;;;;;;4.22;2.10;;;15.60;99.90;;;;;;5064776;28;20041;-35
2023/08/16 01:48:32;;;;;;;4.00;2.13;;;15.50;99.90;;;;;;5066725;28;20044;-35
2023/08/16 01:50:58;;;;;;;4.60;2.20;;;15.50;99.90;;;;;;5066320;28;20505;-36
2023/08/16 01:53:24;;;;;;;3.50;2.00;;;15.50;99.90;;;;;;5067062;28;20044;-36
2023/08/16 01:55:49;;;;;;;3.10;2.10;;;15.50;99.90;;;;;;5065751;28;20071;-36
2023/08/16 01:58:16;;;;;;;4.75;2.38;;;15.50;99.90;;;;;;5056890;28;20052;-35
2023/08/16 02:00:41;;;;;;;5.25;2.70;;;15.40;99.90;;;;;;5062765;28;20075;-35
2023/08/16 02:03:07;;;;;;;4.95;2.63;;;15.40;99.90;;;;;;5061695;28;20486;-36
2023/08/16 02:05:33;;;;;;;4.82;2.60;;;15.30;99.90;;;;;;5056239;28;20056;-34
2023/08/16 02:07:59;;;;;;;5.15;2.33;;;15.30;99.90;;;;;;5066118;28;20532;-35
2023/08/16 02:10:24;;;;;;;5.03;2.45;;;15.30;99.90;;;;;;5065126;28;20461;-35
2023/08/16 02:12:50;;;;;;;4.88;2.40;;;15.30;99.90;;;;;;5063220;28;20059;-35
2023/08/16 02:15:16;;;;;;;4.28;2.20;;;15.20;99.90;;;;;;5063997;28;20056;-36
2023/08/16 02:17:42;;;;;;;8.00;2.67;;;15.20;99.90;;;;;;5062949;28;20056;-34
2023/08/16 02:20:09;;;;;;;5.05;2.95;;;15.20;99.90;;;;;;5063391;28;20106;-35
2023/08/16 02:22:35;;;;;;;5.07;2.75;;;15.20;99.90;;;;;;5063948;28;20090;-36
2023/08/16 02:25:00;;;;;;;3.47;2.53;;;15.10;99.90;;;;;;5061965;28;20067;-35
2023/08/16 02:27:26;;;;;;;7.03;2.90;;;15.20;99.90;;;;;;5054395;28;20052;-35
2023/08/16 02:29:52;;;;;;;7.78;2.40;;;15.10;99.90;;;;;;5057949;28;20053;-34
2023/08/16 02:32:18;;;;;;;5.38;2.45;;;15.10;99.90;;;;;;5065422;28;20057;-35
2023/08/16 02:34:44;;;;;;;6.20;2.20;;;15.10;99.90;;;;;;5066591;28;20048;-35
2023/08/16 02:37:09;;;;;;;4.63;1.80;;;15.00;99.90;;;;;;5067290;28;20048;-35
2023/08/16 02:39:35;;;;;;;2.75;1.40;;;14.90;99.90;;;;;;5065324;28;20056;-35
2023/08/16 02:42:01;;;;;;;2.38;1.33;;;14.70;99.90;;;;;;5063200;28;20425;-36
2023/08/16 02:44:27;;;;;;;2.70;1.55;;;14.70;99.90;;;;;;5045023;28;20109;-34
2023/08/16 02:46:53;;;;;;;3.47;1.83;;;14.70;99.90;;;;;;5065180;28;20643;-35
2023/08/16 02:49:18;;;;;;;3.03;1.90;;;14.70;99.90;;;;;;5066013;28;20045;-35
2023/08/16 02:51:44;;;;;;;2.83;1.60;;;14.60;99.90;;;;;;5064870;28;20056;-34
2023/08/16 02:54:10;;;;;;;5.05;1.95;;;14.70;99.90;;;;;;5063535;28;20078;-35
2023/08/16 02:56:35;;;;;;;3.58;1.88;;;14.60;99.90;;;;;;5061401;28;20116;-35
2023/08/16 02:59:01;;;;;;;2.85;1.70;;;14.60;99.90;;;;;;5065294;28;20086;-35
2023/08/16 03:01:27;;;;;;;3.78;1.63;;;14.60;99.90;;;;;;5063473;28;20490;-35
2023/08/16 03:03:52;;;;;;;3.38;1.95;;;14.60;99.90;;;;;;5064032;28;20040;-35
2023/08/16 03:06:18;;;;;;;3.00;1.77;;;14.60;99.90;;;;;;5064131;28;20036;-35
2023/08/16 03:08:44;;;;;;;3.72;1.70;;;14.60;99.90;;;;;;5062202;28;20467;-34
2023/08/16 03:11:11;;;;;;;3.47;1.92;;;14.60;99.90;;;;;;5059592;28;20056;-34
2023/08/16 03:13:37;;;;;;;3.33;1.73;;;14.60;99.90;;;;;;5059478;28;20047;-35
2023/08/16 03:16:03;;;;;;;2.70;1.67;;;14.60;99.90;;;;;;5062673;28;20041;-35
2023/08/16 03:18:28;;;;;;;2.70;1.60;;;14.60;99.90;;;;;;5056721;28;20141;-35
2023/08/16 03:20:55;;;;;;;3.45;2.08;;;14.60;99.90;;;;;;5064252;28;20049;-34
2023/08/16 03:23:20;;;;;;;3.95;2.03;;;14.60;99.90;;;;;;5064642;28;21209;-35
2023/08/16 03:25:46;;;;;;;3.67;1.80;;;14.70;99.90;;;;;;5062487;28;20126;-35
2023/08/16 03:28:11;;;;;;;4.13;2.47;;;14.70;99.90;;;;;;5061934;28;20196;-36
2023/08/16 03:30:38;;;;;;;3.53;2.08;;;14.70;99.90;;;;;;5062034;28;20149;-35
2023/08/16 03:33:05;;;;;;;4.47;1.88;;;14.70;99.90;;;;;;5063058;28;20056;-35
2023/08/16 03:35:30;;;;;;;3.58;1.58;;;14.70;99.90;;;;;;5061685;28;20490;-35
2023/08/16 03:37:56;;;;;;;2.00;1.40;;;14.70;99.90;;;;;;5062865;28;20051;-35
2023/08/16 03:40:21;;;;;;;2.78;1.40;;;14.70;99.90;;;;;;5064391;28;20079;-35
2023/08/16 03:42:47;;;;;;;3.95;1.70;;;14.70;99.90;;;;;;5059620;28;20056;-35
2023/08/16 03:45:13;;;;;;;3.13;1.55;;;14.70;99.90;;;;;;5063728;28;20059;-35
2023/08/16 03:47:38;;;;;;;3.95;1.40;;;14.70;99.90;;;;;;5062181;28;20048;-36
2023/08/16 03:50:05;;;;;;;3.17;1.55;;;14.60;99.90;;;;;;5064051;28;20606;-35
2023/08/16 03:52:31;;;;;;;4.88;1.73;;;14.70;99.90;;;;;;5063194;28;20071;-35
2023/08/16 03:54:57;;;;;;;3.50;1.67;;;14.60;99.90;;;;;;5064124;28;20091;-35
2023/08/16 03:57:23;;;;;;;3.13;1.67;;;14.60;99.90;;;;;;5065351;28;20055;-35
2023/08/16 03:59:51;;;;;;;3.95;1.90;;;14.60;99.90;;;;;;5060642;28;20388;-35
2023/08/16 04:02:17;;;;;;;3.63;1.73;;;14.60;99.90;;;;;;5062011;28;20040;-35
2023/08/16 04:04:43;;;;;;;4.68;1.77;;;14.50;99.90;;;;;;5061071;28;20525;-35
2023/08/16 04:07:09;;;;;;;3.50;2.22;;;14.60;99.90;;;;;;5058513;28;20076;-35
2023/08/16 04:09:35;;;;;;;3.30;2.22;;;14.50;99.90;;;;;;5062521;28;20044;-34
2023/08/16 04:12:00;;;;;;;3.53;1.75;;;14.50;99.90;;;;;;5060727;28;20624;-35
2023/08/16 04:14:26;;;;;;;3.83;2.00;;;14.50;99.90;;;;;;5060835;28;20512;-35
2023/08/16 04:16:51;;;;;;;2.75;1.80;;;14.40;99.90;;;;;;5061221;28;20048;-35
2023/08/16 04:19:17;;;;;;;3.25;1.70;;;14.40;99.90;;;;;;5058671;28;20049;-36
2023/08/16 04:21:43;;;;;;;2.78;1.50;;;14.40;99.90;;;;;;5059326;28;20056;-35
2023/08/16 04:24:08;;;;;;;3.60;1.83;;;14.40;99.90;;;;;;5046616;28;20125;-35
2023/08/16 04:26:34;;;;;;;2.70;1.73;;;14.40;99.90;;;;;;5061165;28;20075;-35
2023/08/16 04:29:00;;;;;;;3.70;1.40;;;14.40;99.90;;;;;;5062915;28;20045;-35
2023/08/16 04:31:26;;;;;;;2.30;1.38;;;14.40;99.90;;;;;;5061930;28;20166;-35
2023/08/16 04:33:51;;;;;;;2.42;1.40;;;14.40;99.90;;;;;;5060360;28;20041;-35
2023/08/16 04:36:17;;;;;;;2.15;0.98;;;14.30;99.90;;;;;;5063527;28;20054;-35
2023/08/16 04:38:43;;;;;;;2.72;1.70;;;14.30;99.90;;;;;;5066038;28;20044;-34
2023/08/16 04:41:08;;;;;;;2.30;1.30;;;14.30;99.90;;;;;;5057190;28;20067;-34
2023/08/16 04:43:34;;;;;;;3.65;1.67;;;14.30;99.90;;;;;;5059854;28;20123;-34
2023/08/16 04:46:00;;;;;;;2.92;1.42;;;14.40;99.90;;;;;;5061159;28;20061;-34
2023/08/16 04:48:25;;;;;;;4.05;1.40;;;14.40;99.90;;;;;;5061682;28;20062;-35
2023/08/16 04:50:51;;;;;;;2.92;1.58;;;14.40;99.90;;;;;;5062806;28;20444;-34
2023/08/16 04:53:17;;;;;;;4.25;2.17;;;14.40;99.90;;;;;;5063788;28;20486;-35
2023/08/16 04:55:42;;;;;;;4.80;2.40;;;14.50;99.90;;;;;;5063270;28;20060;-34
2023/08/16 04:58:08;;;;;;;4.97;2.30;;;14.50;99.90;;;;;;5057672;28;20052;-35
2023/08/16 05:00:34;;;;;;;7.10;3.00;;;14.50;99.90;;;;;;5062294;28;20063;-35
2023/08/16 05:03:00;;;;;;;6.82;3.25;;;14.50;99.90;;;;;;5061310;28;20565;-34
2023/08/16 05:05:26;;;;;;;4.15;2.63;;;14.60;99.90;;;;;;5049872;28;20060;-34
2023/08/16 05:07:52;;;;;;;5.35;2.33;;;14.60;99.90;;;;;;5060308;28;20061;-35
2023/08/16 05:10:18;;;;;;;4.30;2.63;;;14.70;99.90;;;;;;5062732;28;20056;-35
2023/08/16 05:12:44;;;;;;;5.45;3.30;;;14.70;99.90;;;;;;5060839;28;20044;-35
2023/08/16 05:15:10;;;;;;;5.43;3.30;;;14.80;99.90;;;;;;5061988;28;20071;-35
2023/08/16 05:17:35;;;;;;;7.20;3.55;;;14.80;99.90;;;;;;5062707;28;20083;-35
2023/08/16 05:20:02;;;;;;;7.30;3.05;;;14.80;99.90;;;;;;5060759;28;20057;-36
2023/08/16 05:22:28;;;;;;;4.78;2.60;;;14.90;99.90;;;;;;5043940;28;20067;-41
2023/08/16 05:24:53;;;;;;;5.82;2.13;;;15.00;99.90;;;;;;5056245;28;20493;-35
2023/08/16 05:27:19;;;;;;;3.10;2.05;;;14.90;99.90;;;;;;5066235;28;20411;-35
2023/08/16 05:29:45;;;;;;;6.40;2.65;;;15.00;99.90;;;;;;5045905;28;20475;-35
2023/08/16 05:32:10;;;;;;;5.75;2.83;;;15.10;99.90;;;;;;5052723;28;20576;-35
2023/08/16 05:34:36;;;;;;;5.72;2.78;;;15.10;99.90;;;;;;5059373;28;20112;-35
2023/08/16 05:37:02;;;;;;;6.57;3.20;;;15.20;99.90;;;;;;5055802;28;20068;-35
2023/08/16 05:39:27;;;;;;;6.03;3.20;;;15.30;99.90;;;;;;5063048;28;20476;-35
2023/08/16 05:41:53;;;;;;;3.75;2.13;;;15.40;99.90;;;;;;5064023;28;20483;-35
2023/08/16 05:44:18;;;;;;;4.00;2.40;;;15.50;99.90;;;;;;5064694;28;20052;-35
2023/08/16 05:46:45;;;;;;;3.35;2.10;;;15.50;99.90;;;;;;5062476;28;20053;-35
2023/08/16 05:49:10;;;;;;;3.10;2.08;;;15.50;99.90;;;;;;5063625;28;20051;-35
2023/08/16 05:51:36;;;;;;;3.33;2.10;;;15.60;99.90;;;;;;5065886;28;20052;-35
2023/08/16 05:54:02;;;;;;;3.55;1.67;;;15.70;99.90;;;;;;5064285;28;20575;-35
2023/08/16 05:56:28;;;;;;;4.28;2.30;;;15.80;99.90;;;;;;5068237;28;20137;-36
2023/08/16 05:58:53;;;;;;;5.03;2.40;;;15.90;99.90;;;;;;5061627;28;20141;-35
2023/08/16 06:01:19;;;;;;;3.25;2.22;;;16.00;99.90;;;;;;5060403;28;20047;-35
2023/08/16 06:03:45;;;;;;;6.47;2.22;;;16.10;99.90;;;;;;5059630;28;20048;-34
2023/08/16 06:06:10;;;;;;;6.38;2.67;;;16.20;99.90;;;;;;5063850;28;20071;-35
2023/08/16 06:08:36;;;;;;;3.78;2.25;;;16.20;99.90;;;;;;5063453;28;20048;-35
2023/08/16 06:11:02;;;;;;;5.68;2.30;;;16.30;99.90;;;;;;5065050;28;20102;-35
2023/08/16 06:13:27;;;;;;;6.13;3.22;;;16.40;99.90;;;;;;5065251;28;20426;-35
2023/08/16 06:15:53;;;;;;;4.63;3.00;;;16.50;99.90;;;;;;5062652;28;20052;-35
2023/08/16 06:18:19;;;;;;;5.95;3.10;;;16.50;99.90;;;;;;5064977;28;20048;-36
2023/08/16 06:20:44;;;;;;;5.32;2.63;;;16.60;99.90;;;;;;5055418;28;20064;-35
2023/08/16 06:23:10;;;;;;;5.72;3.08;;;16.60;99.90;;;;;;5060106;28;20057;-34
2023/08/16 06:25:36;;;;;;;4.65;3.00;;;16.60;99.90;;;;;;5052341;28;20064;-36
2023/08/16 06:28:03;;;;;;;5.75;3.55;;;16.60;99.90;;;;;;5056020;28;20052;-36
2023/08/16 06:30:29;;;;;;;6.28;3.33;;;16.70;99.90;;;;;;5056688;28;20132;-35
2023/08/16 06:32:54;;;;;;;5.78;2.53;;;16.70;99.90;;;;;;5061800;28;20147;-35
2023/08/16 06:35:20;;;;;;;5.75;3.20;;;16.70;99.90;;;;;;5062530;28;20049;-35
2023/08/16 06:37:46;;;;;;;4.45;3.05;;;16.80;99.90;;;;;;5057438;28;20057;-35
2023/08/16 06:40:12;;;;;;;5.45;3.40;;;16.80;99.90;;;;;;5062208;28;20512;-35
2023/08/16 06:42:41;;;;;;;6.47;2.95;;;16.90;99.90;;;;;;5058631;28;20456;-36
2023/08/16 06:45:11;;;;;;;8.02;2.60;;;17.00;99.90;;;;;;5059966;28;20144;-36
2023/08/16 06:47:37;;;;;;;5.28;2.80;;;17.00;99.90;;;;;;5048206;28;20044;-35
2023/08/16 06:50:04;;;;;;;5.65;3.10;;;17.10;99.90;;;;;;5061802;28;20801;-36
2023/08/16 06:52:30;;;;;;;9.32;3.00;;;17.20;99.90;;;;;;5055529;28;20051;-35
2023/08/16 06:54:56;;;;;;;4.85;2.42;;;17.20;99.90;;;;;;5049683;28;20057;-35
2023/08/16 06:57:22;;;;;;;6.25;2.35;;;17.30;99.90;;;;;;5062160;28;20404;-36
2023/08/16 06:59:47;;;;;;;4.55;2.13;;;17.40;99.90;;;;;;5063208;28;20079;-36
2023/08/16 07:02:14;;;;;;;3.60;1.92;;;17.40;99.90;;;;;;5061290;28;20150;-36
2023/08/16 07:04:44;;;;;;;5.18;2.20;;;17.40;99.90;;;;;;5052746;28;20079;-36
2023/08/16 07:07:10;;;;;;;4.90;2.63;;;17.50;99.90;;;;;;5061716;28;20052;-36
2023/08/16 07:09:36;;;;;;;4.90;2.50;;;17.60;99.90;;;;;;5064721;28;20145;-36
2023/08/16 07:12:02;;;;;;;7.50;2.40;;;17.60;99.90;;;;;;5064120;28;20143;-36
2023/08/16 07:14:27;;;;;;;6.55;2.50;;;17.70;99.90;;;;;;5063843;28;20401;-35
2023/08/16 07:16:55;;;;;;;4.68;2.05;;;17.70;99.90;;;;;;5055230;28;20045;-35
2023/08/16 07:19:21;;;;;;;6.00;2.65;;;17.80;99.90;;;;;;5040923;28;20056;-36
2023/08/16 07:21:48;;;;;;;5.75;2.55;;;17.80;99.90;;;;;;5058234;28;20131;-36
2023/08/16 07:24:13;;;;;;;4.07;2.65;;;17.90;99.90;;;;;;5061052;28;20551;-35
2023/08/16 07:26:39;;;;;;;4.35;2.67;;;18.00;99.90;;;;;;5054860;28;20045;-36
2023/08/16 07:29:05;;;;;;;3.83;2.08;;;18.10;99.90;;;;;;5043414;28;20041;-36
2023/08/16 07:31:31;;;;;;;4.18;1.92;;;18.10;99.90;;;;;;5068093;28;20052;-36
2023/08/16 07:33:56;;;;;;;6.50;1.95;;;18.20;99.90;;;;;;5062741;28;20068;-36
2023/08/16 07:36:22;;;;;;;4.53;2.40;;;18.30;99.90;;;;;;5061753;28;20059;-35
2023/08/16 07:38:48;;;;;;;3.50;2.10;;;18.30;99.90;;;;;;5054001;28;20523;-35
2023/08/16 07:41:13;;;;;;;4.88;2.15;;;18.40;99.90;;;;;;5052398;28;20056;-36
2023/08/16 07:43:39;;;;;;;5.05;2.53;;;18.40;99.90;;;;;;5064427;28;20036;-36
2023/08/16 07:46:05;;;;;;;5.47;2.88;;;18.50;99.90;;;;;;5051534;28;20957;-36
2023/08/16 07:48:30;;;;;;;4.95;2.65;;;18.60;99.90;;;;;;5047826;28;20083;-35
2023/08/16 07:50:56;;;;;;;3.75;2.25;;;18.70;99.90;;;;;;5039981;28;20053;-35
2023/08/16 07:53:22;;;;;;;5.10;1.80;;;18.70;99.90;;;;;;5061753;28;20052;-36
2023/08/16 07:55:48;;;;;;;5.10;2.00;;;18.80;99.90;;;;;;5055363;28;20139;-35
2023/08/16 07:58:15;;;;;;;3.97;1.90;;;18.90;99.90;;;;;;5059697;28;20048;-35
2023/08/16 08:00:42;;;;;;;3.03;1.30;;;18.90;99.90;;;;;;5060225;28;20087;-35
2023/08/16 08:03:09;;;;;;;3.25;1.50;;;19.00;99.90;;;;;;5048448;28;20650;-35
2023/08/16 08:05:35;;;;;;;3.30;2.15;;;19.10;99.90;;;;;;5058951;28;20151;-34
2023/08/16 08:08:01;;;;;;;4.00;1.40;;;19.20;99.90;;;;;;5047072;28;20502;-35
2023/08/16 08:10:29;;;;;;;5.53;1.92;;;19.40;99.90;;;;;;5061250;28;20063;-35
2023/08/16 08:12:55;;;;;;;2.78;1.77;;;19.40;99.90;;;;;;5062727;28;20048;-35
2023/08/16 08:15:20;;;;;;;3.15;1.50;;;19.60;99.90;;;;;;5059265;28;20382;-35
2023/08/16 08:17:47;;;;;;;2.03;1.27;;;19.70;99.90;;;;;;5052796;28;20430;-35
2023/08/16 08:20:14;;;;;;;4.70;1.30;;;19.80;99.90;;;;;;5034350;28;20055;-35
2023/08/16 08:22:40;;;;;;;3.92;1.40;;;19.90;99.90;;;;;;5036936;28;20045;-34
2023/08/16 08:25:07;;;;;;;2.83;1.38;;;20.00;99.90;;;;;;5058325;28;20481;-35
2023/08/16 08:27:33;;;;;;;3.63;1.42;;;20.00;99.90;;;;;;5050624;28;20056;-35
2023/08/16 08:29:58;;;;;;;3.33;1.40;;;20.10;99.90;;;;;;5057515;28;20071;-35
2023/08/16 08:32:24;;;;;;;2.60;1.00;;;20.20;99.90;;;;;;5060676;28;22839;-35
2023/08/16 08:34:50;;;;;;;4.15;1.00;;;20.30;99.90;;;;;;5060401;28;20076;-34
2023/08/16 08:37:15;;;;;;;1.95;0.70;;;20.40;99.90;;;;;;5059494;28;20403;-36
2023/08/16 08:39:41;;;;;;;2.70;0.80;;;20.50;99.90;;;;;;5060204;28;20146;-35
2023/08/16 08:42:09;;;;;;;2.88;0.88;;;20.60;99.90;;;;;;5059898;28;20045;-35
2023/08/16 08:44:36;;;;;;;2.88;0.95;;;20.70;99.90;;;;;;5061307;28;20052;-35
2023/08/16 08:47:05;;;;;;;2.28;0.80;;;20.70;99.90;;;;;;5057716;28;20167;-35
2023/08/16 08:49:33;;;;;;;2.35;0.90;;;20.70;99.90;;;;;;5059634;28;20060;-35
2023/08/16 08:52:01;;;;;;;3.20;1.10;;;20.70;99.90;;;;;;5051527;28;20059;-34
2023/08/16 08:54:27;;;;;;;1.55;0.70;;;20.70;99.90;;;;;;5059114;28;20065;-35
2023/08/16 08:56:53;;;;;;;5.63;1.20;;;20.80;99.90;;;;;;5044138;28;20053;-35
2023/08/16 08:59:19;;;;;;;1.90;0.70;;;20.90;99.90;;;;;;5053616;28;20052;-35
2023/08/16 09:01:49;;;;;;;3.55;0.70;;;21.00;99.90;;;;;;5065467;28;20402;-35
2023/08/16 09:04:15;;;;;;;2.15;0.60;;;21.10;99.90;;;;;;5058515;28;20063;-34
2023/08/16 09:06:42;;;;;;;1.45;0.60;;;21.30;99.90;;;;;;5053774;28;20048;-34
2023/08/16 09:09:08;;;;;;;2.38;0.50;;;21.40;99.90;;;;;;5063976;28;20048;-34
2023/08/16 09:11:34;;;;;;;1.83;0.52;;;21.50;99.90;;;;;;5059581;28;20055;-35
2023/08/16 09:14:02;;;;;;;1.85;0.50;;;21.70;99.90;;;;;;5069555;28;20631;-34
2023/08/16 09:16:28;;;;;;;3.55;1.23;;;21.80;99.90;;;;;;5067811;28;20093;-34
2023/08/16 09:18:53;;;;;;;1.63;0.50;;;21.90;99.90;;;;;;5068003;28;20056;-35
2023/08/16 09:21:19;;;;;;;3.00;0.60;;;22.00;99.90;;;;;;5064918;28;20045;-34
2023/08/16 09:23:54;;;;;;;3.13;0.60;;;22.00;99.90;;;;;;5067050;28;20124;-34
2023/08/16 09:26:21;;;;;;;2.38;0.73;;;22.10;99.90;;;;;;5067228;28;20052;-35
2023/08/16 09:28:47;;;;;;;3.45;0.80;;;22.20;99.90;;;;;;5068358;28;20425;-35
2023/08/16 09:31:12;;;;;;;1.27;0.68;;;22.20;99.90;;;;;;5069173;28;20048;-34
2023/08/16 09:33:39;;;;;;;3.80;0.90;;;22.40;99.90;;;;;;5069367;28;20101;-35
2023/08/16 09:36:04;;;;;;;1.60;0.70;;;22.40;99.90;;;;;;5063663;28;20110;-35
2023/08/16 09:38:32;;;;;;;1.73;0.45;;;22.60;99.90;;;;;;5066975;28;20558;-35
2023/08/16 09:40:58;;;;;;;0.88;0.50;;;22.60;99.90;;;;;;5068207;28;20060;-35
2023/08/16 09:43:24;;;;;;;1.20;0.50;;;22.70;99.90;;;;;;5069793;28;20421;-34
2023/08/16 09:45:53;;;;;;;1.92;0.60;;;22.80;99.90;;;;;;5063236;28;20136;-35
2023/08/16 09:48:21;;;;;;;1.75;0.52;;;22.90;99.90;;;;;;5061532;28;20138;-34
2023/08/16 09:50:47;;;;;;;1.75;0.55;;;23.00;99.90;;;;;;5068385;28;20048;-35
2023/08/16 09:53:13;;;;;;;1.05;0.50;;;23.10;99.90;;;;;;5063746;28;20071;-34
2023/08/16 09:55:49;;;;;;;2.15;0.60;;;23.10;99.90;;;;;;5059999;28;20053;-35
2023/08/16 09:58:16;;;;;;;0.90;0.47;;;23.20;99.90;;;;;;5067521;28;20498;-35
2023/08/16 10:00:43;;;;;;;1.58;0.50;;;23.20;99.90;;;;;;5055964;28;20049;-35
2023/08/16 10:03:10;;;;;;;2.22;0.80;;;23.30;99.90;;;;;;5042286;28;20049;-35
2023/08/16 10:05:36;;;;;;;2.88;0.68;;;23.40;99.90;;;;;;5042636;28;20057;-35
2023/08/16 10:08:05;;;;;;;2.58;0.57;;;23.50;99.90;;;;;;5062748;28;20052;-35
2023/08/16 10:10:32;;;;;;;1.17;0.50;;;23.60;99.90;;;;;;5046415;28;20049;-35
2023/08/16 10:12:59;;;;;;;2.45;0.60;;;23.60;99.90;;;;;;5067862;28;20052;-35
2023/08/16 10:15:26;;;;;;;1.88;0.47;;;23.70;99.90;;;;;;5053331;28;20049;-35
2023/08/16 10:17:53;;;;;;;1.60;0.55;;;23.80;99.90;;;;;;5064115;28;20060;-34
2023/08/16 10:20:23;;;;;;;2.70;0.57;;;23.90;99.90;;;;;;5067409;28;20049;-34
2023/08/16 10:22:57;;;;;;;1.58;0.50;;;24.00;99.90;;;;;;5065522;28;20052;-35
2023/08/16 10:25:25;;;;;;;0.68;0.50;;;24.10;99.90;;;;;;5067931;28;20526;-35
2023/08/16 10:27:55;;;;;;;2.38;0.70;;;24.20;99.90;;;;;;5067660;28;20048;-35
2023/08/16 10:30:23;;;;;;;1.13;0.50;;;24.30;99.90;;;;;;5069507;28;20048;-36
2023/08/16 10:32:57;;;;;;;2.13;0.55;;;24.30;99.90;;;;;;5063865;28;20571;-35
2023/08/16 10:35:23;;;;;;;2.97;0.60;;;24.40;99.90;;;;;;5063276;28;20049;-35
2023/08/16 10:37:53;;;;;;;2.22;0.80;;;24.40;99.90;;;;;;5059831;28;20056;-35
2023/08/16 10:40:21;;;;;;;3.38;0.40;;;24.40;99.90;;;;;;5064495;28;20056;-37
2023/08/16 10:43:03;;;;;;;1.23;0.60;;;24.50;99.90;;;;;;5059771;28;20056;-35
2023/08/16 10:45:34;;;;;;;3.40;0.57;;;24.60;99.90;;;;;;5059514;28;20060;-35
2023/08/16 10:48:16;;;;;;;1.35;0.60;;;24.50;99.90;;;;;;5063221;28;20509;-35
2023/08/16 10:50:42;;;;;;;;;;;24.60;99.90;;;;;;5060112;28;20137;-35
2023/08/16 10:53:08;;;;;;;2.28;0.43;;;24.50;99.90;;;;;;5061288;28;20006;-35
2023/08/16 10:55:37;;;;;;;0.50;0.40;;;24.50;99.90;;;;;;5051640;28;20453;-35
2023/08/16 10:58:03;;;;;;;0.77;0.40;;;24.60;99.90;;;;;;5062507;28;20048;-35
2023/08/16 11:00:35;;;;;;;1.23;0.60;;;24.60;99.90;;;;;;5062506;28;20305;-35
2023/08/16 11:03:04;;;;;;;1.50;0.40;;;24.70;99.90;;;;;;5063203;28;20117;-35
2023/08/16 11:05:34;;;;;;;2.28;0.70;;;24.80;99.90;;;;;;5048483;28;20110;-35
2023/08/16 11:08:04;;;;;;;1.55;0.57;;;24.80;99.90;;;;;;5061730;28;20498;-34
2023/08/16 11:10:34;;;;;;;0.70;0.47;;;24.80;99.90;;;;;;5063700;28;20048;-35
2023/08/16 11:13:02;;;;;;;1.02;0.52;;;24.80;99.90;;;;;;5052455;28;21109;-35
2023/08/16 11:15:28;;;;;;;1.58;0.60;;;24.90;99.90;;;;;;5059088;28;20059;-35
2023/08/16 11:17:55;;;;;;;1.73;0.60;;;24.90;99.90;;;;;;5060405;28;20064;-35
2023/08/16 11:20:23;;;;;;;1.23;0.52;;;24.90;99.90;;;;;;5056823;28;20195;-35
2023/08/16 11:22:49;;;;;;;1.17;0.50;;;25.00;99.90;;;;;;5055842;28;20057;-34
2023/08/16 11:25:15;;;;;;;3.05;0.73;;;25.00;99.90;;;;;;5065379;28;20071;-35
2023/08/16 11:27:41;;;;;;;1.17;0.55;;;25.00;99.90;;;;;;5060115;28;20060;-35
2023/08/16 11:30:08;;;;;;;1.77;0.50;;;25.10;99.90;;;;;;5046488;28;20452;-35
2023/08/16 11:32:36;;;;;;;1.02;0.63;;;25.30;99.90;;;;;;5065523;28;20512;-36
2023/08/16 11:35:09;;;;;;;1.02;0.50;;;25.40;99.90;;;;;;5058642;28;20548;-35
2023/08/16 11:37:36;;;;;;;3.15;0.70;;;25.40;99.90;;;;;;5049167;28;20048;-34
2023/08/16 11:40:07;;;;;;;3.38;0.43;;;25.50;99.90;;;;;;5052783;28;20063;-35
2023/08/16 11:42:33;;;;;;;0.47;0.38;;;25.50;99.90;;;;;;5059486;28;20095;-35
2023/08/16 11:44:59;;;;;;;1.20;0.40;;;25.50;99.90;;;;;;5056574;28;20140;-35
2023/08/16 11:47:25;;;;;;;1.02;0.40;;;25.60;99.90;;;;;;5058585;28;20163;-35
2023/08/16 11:49:51;;;;;;;1.38;0.40;;;25.60;99.90;;;;;;5051500;28;20442;-35
2023/08/16 11:52:21;;;;;;;0.68;0.40;;;25.70;99.90;;;;;;5061431;28;20047;-35
2023/08/16 11:54:48;;;;;;;1.30;0.40;;;25.80;99.90;;;;;;5063027;28;20044;-35
2023/08/16 11:57:20;;;;;;;0.75;0.40;;;25.90;99.90;;;;;;5063753;28;20057;-35
2023/08/16 11:59:55;;;;;;;1.98;0.40;;;25.90;99.90;;;;;;5041592;28;20495;-35
2023/08/16 12:02:23;;;;;;;0.93;0.40;;;26.00;99.90;;;;;;5059551;28;20498;-35
2023/08/16 12:04:49;;;;;;;2.50;0.80;;;26.10;99.90;;;;;;5062961;28;20056;-35
2023/08/16 12:07:15;;;;;;;2.10;0.60;;;26.20;99.90;;;;;;5067175;28;20083;-35
2023/08/16 12:09:41;;;;;;;0.85;0.40;;;26.30;99.90;;;;;;5070071;28;20068;-35
2023/08/16 12:12:08;;;;;;;1.33;0.52;;;26.40;99.90;;;;;;5066932;28;20587;-34
2023/08/16 12:14:34;;;;;;;1.45;0.57;;;26.50;99.90;;;;;;5059770;28;20072;-35
2023/08/16 12:17:00;;;;;;;0.40;0.40;;;26.50;99.90;;;;;;5061780;28;20083;-35
2023/08/16 12:19:25;;;;;;;1.52;0.55;;;26.60;99.90;;;;;;5063137;28;20052;-35
2023/08/16 12:21:52;;;;;;;2.28;0.75;;;26.60;99.90;;;;;;5058560;28;20588;-35
2023/08/16 12:24:18;;;;;;;1.75;0.40;;;26.60;99.90;;;;;;5059109;28;20045;-35
2023/08/16 12:26:44;;;;;;;3.47;0.45;;;26.70;99.90;;;;;;5059695;28;20048;-35
2023/08/16 12:29:10;;;;;;;1.10;0.43;;;26.80;99.90;;;;;;5068675;28;20848;-35
2023/08/16 12:31:36;;;;;;;1.55;0.50;;;27.10;99.90;;;;;;5065613;28;20051;-35
2023/08/16 12:34:01;;;;;;;2.63;0.60;;;27.20;99.90;;;;;;5061202;28;20044;-35
2023/08/16 12:36:27;;;;;;;0.65;0.40;;;27.30;99.90;;;;;;5063849;28;20075;-35
2023/08/16 12:38:53;;;;;;;3.25;0.40;;;27.20;99.90;;;;;;5064165;28;20398;-35
2023/08/16 12:41:18;;;;;;;0.80;0.40;;;27.00;99.90;;;;;;5059194;28;20064;-35
2023/08/16 12:43:44;;;;;;;1.42;0.32;;;26.80;99.90;;;;;;5062083;28;20811;-35
2023/08/16 12:46:10;;;;;;;0.95;0.38;;;26.90;99.90;;;;;;5061558;28;20399;-35